METAR Data
IDs: Format: Raw Decoded Include TAF

Data at: 0023 UTC 30 May 2020

PKMR 292352Z 10008KT 15SM SCT014TCU BKN045 BKN110 OVC300 26/24 A2993 RMK SHRAE40 TCU NE-E AND W SLP137 60148 8/878 T02570242 10263 20248 58005